sensor_id;sensor_type;location;lat;lon;timestamp;P1;durP1;ratioP1;P2;durP2;ratioP2
21729;SDS011;11027;51.030;13.812;2023-05-10T00:00:04;4.90;;;1.60;;
21729;SDS011;11027;51.030;13.812;2023-05-10T00:02:29;6.32;;;1.73;;
21729;SDS011;11027;51.030;13.812;2023-05-10T00:04:55;10.30;;;1.63;;
21729;SDS011;11027;51.030;13.812;2023-05-10T00:07:20;3.83;;;1.65;;
21729;SDS011;11027;51.030;13.812;2023-05-10T00:09:45;6.00;;;1.42;;
21729;SDS011;11027;51.030;13.812;2023-05-10T00:12:10;3.05;;;1.40;;
21729;SDS011;11027;51.030;13.812;2023-05-10T00:14:36;1.60;;;1.48;;
21729;SDS011;11027;51.030;13.812;2023-05-10T00:17:01;3.80;;;1.60;;
21729;SDS011;11027;51.030;13.812;2023-05-10T00:19:26;2.10;;;1.60;;
21729;SDS011;11027;51.030;13.812;2023-05-10T00:21:51;4.15;;;1.50;;
21729;SDS011;11027;51.030;13.812;2023-05-10T00:24:17;2.08;;;1.45;;
21729;SDS011;11027;51.030;13.812;2023-05-10T00:26:42;3.20;;;1.52;;
21729;SDS011;11027;51.030;13.812;2023-05-10T00:29:07;4.88;;;1.50;;
21729;SDS011;11027;51.030;13.812;2023-05-10T00:31:33;1.83;;;1.52;;
21729;SDS011;11027;51.030;13.812;2023-05-10T00:33:58;2.80;;;1.65;;
21729;SDS011;11027;51.030;13.812;2023-05-10T00:36:23;1.70;;;1.40;;
21729;SDS011;11027;51.030;13.812;2023-05-10T00:38:48;2.75;;;1.65;;
21729;SDS011;11027;51.030;13.812;2023-05-10T00:41:14;3.75;;;1.27;;
21729;SDS011;11027;51.030;13.812;2023-05-10T00:43:39;3.78;;;1.45;;
21729;SDS011;11027;51.030;13.812;2023-05-10T00:46:04;3.47;;;1.30;;
21729;SDS011;11027;51.030;13.812;2023-05-10T00:48:30;1.63;;;1.40;;
21729;SDS011;11027;51.030;13.812;2023-05-10T00:50:55;1.40;;;1.30;;
21729;SDS011;11027;51.030;13.812;2023-05-10T00:53:20;3.10;;;1.25;;
21729;SDS011;11027;51.030;13.812;2023-05-10T00:55:46;1.92;;;1.23;;
21729;SDS011;11027;51.030;13.812;2023-05-10T00:58:11;4.15;;;1.38;;
21729;SDS011;11027;51.030;13.812;2023-05-10T01:00:37;2.58;;;1.30;;
21729;SDS011;11027;51.030;13.812;2023-05-10T01:03:05;5.28;;;1.75;;
21729;SDS011;11027;51.030;13.812;2023-05-10T01:05:30;2.05;;;1.30;;
21729;SDS011;11027;51.030;13.812;2023-05-10T01:07:56;2.30;;;1.23;;
21729;SDS011;11027;51.030;13.812;2023-05-10T01:10:22;1.88;;;1.30;;
21729;SDS011;11027;51.030;13.812;2023-05-10T01:12:47;3.00;;;1.48;;
21729;SDS011;11027;51.030;13.812;2023-05-10T01:15:13;2.30;;;1.60;;
21729;SDS011;11027;51.030;13.812;2023-05-10T01:17:40;3.67;;;1.10;;
21729;SDS011;11027;51.030;13.812;2023-05-10T01:20:09;2.03;;;1.50;;
21729;SDS011;11027;51.030;13.812;2023-05-10T01:25:26;2.25;;;1.33;;
21729;SDS011;11027;51.030;13.812;2023-05-10T01:31:18;4.60;;;1.48;;
21729;SDS011;11027;51.030;13.812;2023-05-10T01:34:08;2.28;;;1.38;;
21729;SDS011;11027;51.030;13.812;2023-05-10T01:36:45;1.77;;;1.35;;
21729;SDS011;11027;51.030;13.812;2023-05-10T01:39:26;1.65;;;1.38;;
21729;SDS011;11027;51.030;13.812;2023-05-10T01:42:07;1.50;;;1.40;;
21729;SDS011;11027;51.030;13.812;2023-05-10T01:47:50;4.95;;;1.38;;
21729;SDS011;11027;51.030;13.812;2023-05-10T01:50:24;1.60;;;1.50;;
21729;SDS011;11027;51.030;13.812;2023-05-10T01:52:55;2.65;;;1.30;;
21729;SDS011;11027;51.030;13.812;2023-05-10T01:55:23;3.08;;;1.48;;
21729;SDS011;11027;51.030;13.812;2023-05-10T01:57:51;1.10;;;1.05;;
21729;SDS011;11027;51.030;13.812;2023-05-10T02:02:48;1.80;;;1.65;;
21729;SDS011;11027;51.030;13.812;2023-05-10T02:05:16;3.50;;;1.50;;
21729;SDS011;11027;51.030;13.812;2023-05-10T02:07:42;1.90;;;1.50;;
21729;SDS011;11027;51.030;13.812;2023-05-10T02:10:09;2.33;;;1.45;;
21729;SDS011;11027;51.030;13.812;2023-05-10T02:12:36;1.92;;;1.40;;
21729;SDS011;11027;51.030;13.812;2023-05-10T02:15:06;3.10;;;1.50;;
21729;SDS011;11027;51.030;13.812;2023-05-10T02:17:33;2.97;;;1.58;;
21729;SDS011;11027;51.030;13.812;2023-05-10T02:20:00;3.00;;;1.27;;
21729;SDS011;11027;51.030;13.812;2023-05-10T02:22:27;6.07;;;1.30;;
21729;SDS011;11027;51.030;13.812;2023-05-10T02:24:57;4.93;;;1.50;;
21729;SDS011;11027;51.030;13.812;2023-05-10T02:27:24;2.30;;;1.50;;
21729;SDS011;11027;51.030;13.812;2023-05-10T02:29:52;2.40;;;1.63;;
21729;SDS011;11027;51.030;13.812;2023-05-10T02:32:19;3.05;;;1.67;;
21729;SDS011;11027;51.030;13.812;2023-05-10T02:34:47;1.58;;;1.40;;
21729;SDS011;11027;51.030;13.812;2023-05-10T02:37:16;2.80;;;1.40;;
21729;SDS011;11027;51.030;13.812;2023-05-10T02:39:44;4.25;;;1.33;;
21729;SDS011;11027;51.030;13.812;2023-05-10T02:42:15;2.60;;;1.70;;
21729;SDS011;11027;51.030;13.812;2023-05-10T02:44:42;4.25;;;1.83;;
21729;SDS011;11027;51.030;13.812;2023-05-10T02:47:10;2.38;;;1.25;;
21729;SDS011;11027;51.030;13.812;2023-05-10T02:49:35;4.30;;;1.60;;
21729;SDS011;11027;51.030;13.812;2023-05-10T02:52:01;3.55;;;1.50;;
21729;SDS011;11027;51.030;13.812;2023-05-10T02:54:32;4.32;;;1.38;;
21729;SDS011;11027;51.030;13.812;2023-05-10T02:57:00;2.42;;;1.67;;
21729;SDS011;11027;51.030;13.812;2023-05-10T02:59:29;2.58;;;1.40;;
21729;SDS011;11027;51.030;13.812;2023-05-10T03:01:54;5.10;;;1.40;;
21729;SDS011;11027;51.030;13.812;2023-05-10T03:04:20;2.38;;;1.48;;
21729;SDS011;11027;51.030;13.812;2023-05-10T03:06:45;2.05;;;1.40;;
21729;SDS011;11027;51.030;13.812;2023-05-10T03:09:10;2.40;;;1.35;;
21729;SDS011;11027;51.030;13.812;2023-05-10T03:14:21;6.38;;;1.60;;
21729;SDS011;11027;51.030;13.812;2023-05-10T03:16:46;3.97;;;1.55;;
21729;SDS011;11027;51.030;13.812;2023-05-10T03:19:18;2.65;;;1.45;;
21729;SDS011;11027;51.030;13.812;2023-05-10T03:21:51;5.00;;;1.30;;
21729;SDS011;11027;51.030;13.812;2023-05-10T03:24:18;5.20;;;2.28;;
21729;SDS011;11027;51.030;13.812;2023-05-10T03:26:46;4.32;;;1.65;;
21729;SDS011;11027;51.030;13.812;2023-05-10T03:29:13;1.60;;;1.40;;
21729;SDS011;11027;51.030;13.812;2023-05-10T03:31:40;4.68;;;1.70;;
21729;SDS011;11027;51.030;13.812;2023-05-10T03:34:06;2.38;;;1.60;;
21729;SDS011;11027;51.030;13.812;2023-05-10T03:36:32;2.00;;;1.40;;
21729;SDS011;11027;51.030;13.812;2023-05-10T03:38:57;3.30;;;1.55;;
21729;SDS011;11027;51.030;13.812;2023-05-10T03:41:22;6.07;;;1.67;;
21729;SDS011;11027;51.030;13.812;2023-05-10T03:43:48;2.80;;;1.30;;
21729;SDS011;11027;51.030;13.812;2023-05-10T03:46:13;2.85;;;1.60;;
21729;SDS011;11027;51.030;13.812;2023-05-10T03:48:38;2.47;;;1.60;;
21729;SDS011;11027;51.030;13.812;2023-05-10T03:51:04;1.60;;;1.45;;
21729;SDS011;11027;51.030;13.812;2023-05-10T03:53:29;4.35;;;1.50;;
21729;SDS011;11027;51.030;13.812;2023-05-10T03:55:54;3.35;;;1.35;;
21729;SDS011;11027;51.030;13.812;2023-05-10T03:58:20;2.47;;;1.70;;
21729;SDS011;11027;51.030;13.812;2023-05-10T04:00:45;1.42;;;1.33;;
21729;SDS011;11027;51.030;13.812;2023-05-10T04:03:11;1.73;;;1.27;;
21729;SDS011;11027;51.030;13.812;2023-05-10T04:05:36;1.60;;;1.50;;
21729;SDS011;11027;51.030;13.812;2023-05-10T04:08:02;9.00;;;1.50;;
21729;SDS011;11027;51.030;13.812;2023-05-10T04:10:28;6.05;;;2.60;;
21729;SDS011;11027;51.030;13.812;2023-05-10T04:12:53;6.18;;;1.88;;
21729;SDS011;11027;51.030;13.812;2023-05-10T04:15:18;2.28;;;1.52;;
21729;SDS011;11027;51.030;13.812;2023-05-10T04:17:44;4.38;;;1.30;;
21729;SDS011;11027;51.030;13.812;2023-05-10T04:20:09;3.42;;;1.70;;
21729;SDS011;11027;51.030;13.812;2023-05-10T04:22:35;3.00;;;1.80;;
21729;SDS011;11027;51.030;13.812;2023-05-10T04:25:00;2.47;;;1.55;;
21729;SDS011;11027;51.030;13.812;2023-05-10T04:27:26;4.25;;;1.40;;
21729;SDS011;11027;51.030;13.812;2023-05-10T04:29:51;2.35;;;1.70;;
21729;SDS011;11027;51.030;13.812;2023-05-10T04:32:16;1.70;;;1.60;;
21729;SDS011;11027;51.030;13.812;2023-05-10T04:34:42;3.55;;;1.83;;
21729;SDS011;11027;51.030;13.812;2023-05-10T04:37:08;4.03;;;1.35;;
21729;SDS011;11027;51.030;13.812;2023-05-10T04:39:33;2.47;;;1.60;;
21729;SDS011;11027;51.030;13.812;2023-05-10T04:41:59;2.58;;;1.55;;
21729;SDS011;11027;51.030;13.812;2023-05-10T04:44:24;2.60;;;1.50;;
21729;SDS011;11027;51.030;13.812;2023-05-10T04:46:49;2.95;;;1.52;;
21729;SDS011;11027;51.030;13.812;2023-05-10T04:49:14;2.22;;;1.60;;
21729;SDS011;11027;51.030;13.812;2023-05-10T04:51:40;2.65;;;1.60;;
21729;SDS011;11027;51.030;13.812;2023-05-10T04:54:05;3.85;;;1.42;;
21729;SDS011;11027;51.030;13.812;2023-05-10T04:56:30;5.00;;;1.55;;
21729;SDS011;11027;51.030;13.812;2023-05-10T04:58:55;3.80;;;1.60;;
21729;SDS011;11027;51.030;13.812;2023-05-10T05:01:21;1.65;;;1.30;;
21729;SDS011;11027;51.030;13.812;2023-05-10T05:03:47;2.78;;;1.50;;
21729;SDS011;11027;51.030;13.812;2023-05-10T05:06:13;2.83;;;1.90;;
21729;SDS011;11027;51.030;13.812;2023-05-10T05:08:38;1.70;;;1.60;;
21729;SDS011;11027;51.030;13.812;2023-05-10T05:11:03;5.07;;;1.40;;
21729;SDS011;11027;51.030;13.812;2023-05-10T05:13:28;2.33;;;1.58;;
21729;SDS011;11027;51.030;13.812;2023-05-10T05:15:54;2.00;;;1.30;;
21729;SDS011;11027;51.030;13.812;2023-05-10T05:18:19;2.85;;;1.45;;
21729;SDS011;11027;51.030;13.812;2023-05-10T05:20:44;2.72;;;1.55;;
21729;SDS011;11027;51.030;13.812;2023-05-10T05:23:10;2.58;;;1.55;;
21729;SDS011;11027;51.030;13.812;2023-05-10T05:25:35;3.80;;;2.00;;
21729;SDS011;11027;51.030;13.812;2023-05-10T05:28:01;2.38;;;1.65;;
21729;SDS011;11027;51.030;13.812;2023-05-10T05:30:26;3.47;;;1.20;;
21729;SDS011;11027;51.030;13.812;2023-05-10T05:32:51;3.30;;;1.70;;
21729;SDS011;11027;51.030;13.812;2023-05-10T05:35:17;1.83;;;1.58;;
21729;SDS011;11027;51.030;13.812;2023-05-10T05:37:42;4.28;;;1.52;;
21729;SDS011;11027;51.030;13.812;2023-05-10T05:40:07;5.15;;;1.35;;
21729;SDS011;11027;51.030;13.812;2023-05-10T05:42:33;3.03;;;1.60;;
21729;SDS011;11027;51.030;13.812;2023-05-10T05:44:58;1.38;;;1.27;;
21729;SDS011;11027;51.030;13.812;2023-05-10T05:47:23;5.03;;;1.58;;
21729;SDS011;11027;51.030;13.812;2023-05-10T05:49:49;3.70;;;1.40;;
21729;SDS011;11027;51.030;13.812;2023-05-10T05:52:14;2.30;;;1.17;;
21729;SDS011;11027;51.030;13.812;2023-05-10T05:54:39;3.60;;;2.00;;
21729;SDS011;11027;51.030;13.812;2023-05-10T05:57:05;4.70;;;1.40;;
21729;SDS011;11027;51.030;13.812;2023-05-10T05:59:30;1.70;;;1.40;;
21729;SDS011;11027;51.030;13.812;2023-05-10T06:01:55;7.35;;;1.80;;
21729;SDS011;11027;51.030;13.812;2023-05-10T06:04:21;4.90;;;1.40;;
21729;SDS011;11027;51.030;13.812;2023-05-10T06:06:46;4.30;;;1.60;;
21729;SDS011;11027;51.030;13.812;2023-05-10T06:09:11;4.38;;;1.70;;
21729;SDS011;11027;51.030;13.812;2023-05-10T06:11:37;3.63;;;1.90;;
21729;SDS011;11027;51.030;13.812;2023-05-10T06:14:02;4.97;;;1.58;;
21729;SDS011;11027;51.030;13.812;2023-05-10T06:16:29;3.80;;;1.52;;
21729;SDS011;11027;51.030;13.812;2023-05-10T06:18:55;1.60;;;1.50;;
21729;SDS011;11027;51.030;13.812;2023-05-10T06:21:20;2.03;;;1.60;;
21729;SDS011;11027;51.030;13.812;2023-05-10T06:23:45;1.98;;;1.20;;
21729;SDS011;11027;51.030;13.812;2023-05-10T06:26:10;2.88;;;1.20;;
21729;SDS011;11027;51.030;13.812;2023-05-10T06:28:36;1.83;;;1.55;;
21729;SDS011;11027;51.030;13.812;2023-05-10T06:31:03;3.20;;;1.50;;
21729;SDS011;11027;51.030;13.812;2023-05-10T06:33:28;2.65;;;1.20;;
21729;SDS011;11027;51.030;13.812;2023-05-10T06:35:54;2.67;;;1.52;;
21729;SDS011;11027;51.030;13.812;2023-05-10T06:38:19;3.40;;;1.67;;
21729;SDS011;11027;51.030;13.812;2023-05-10T06:40:44;3.85;;;1.52;;
21729;SDS011;11027;51.030;13.812;2023-05-10T06:43:10;5.40;;;1.50;;
21729;SDS011;11027;51.030;13.812;2023-05-10T06:45:35;4.82;;;1.80;;
21729;SDS011;11027;51.030;13.812;2023-05-10T06:48:00;4.25;;;1.70;;
21729;SDS011;11027;51.030;13.812;2023-05-10T06:50:26;2.72;;;1.30;;
21729;SDS011;11027;51.030;13.812;2023-05-10T06:52:51;2.47;;;1.90;;
21729;SDS011;11027;51.030;13.812;2023-05-10T06:55:17;4.75;;;1.80;;
21729;SDS011;11027;51.030;13.812;2023-05-10T06:57:42;6.15;;;2.20;;
21729;SDS011;11027;51.030;13.812;2023-05-10T07:00:07;5.00;;;1.90;;
21729;SDS011;11027;51.030;13.812;2023-05-10T07:02:34;3.15;;;1.33;;
21729;SDS011;11027;51.030;13.812;2023-05-10T07:05:00;9.23;;;1.95;;
21729;SDS011;11027;51.030;13.812;2023-05-10T07:07:25;4.32;;;1.75;;
21729;SDS011;11027;51.030;13.812;2023-05-10T07:09:50;9.23;;;2.38;;
21729;SDS011;11027;51.030;13.812;2023-05-10T07:12:16;4.03;;;1.50;;
21729;SDS011;11027;51.030;13.812;2023-05-10T07:14:42;4.18;;;2.08;;
21729;SDS011;11027;51.030;13.812;2023-05-10T07:17:07;4.22;;;1.60;;
21729;SDS011;11027;51.030;13.812;2023-05-10T07:19:32;9.70;;;1.90;;
21729;SDS011;11027;51.030;13.812;2023-05-10T07:21:58;5.65;;;1.83;;
21729;SDS011;11027;51.030;13.812;2023-05-10T07:24:23;4.13;;;2.30;;
21729;SDS011;11027;51.030;13.812;2023-05-10T07:26:49;7.97;;;2.00;;
21729;SDS011;11027;51.030;13.812;2023-05-10T07:29:14;3.75;;;1.75;;
21729;SDS011;11027;51.030;13.812;2023-05-10T07:31:39;1.80;;;1.48;;
21729;SDS011;11027;51.030;13.812;2023-05-10T07:34:06;5.68;;;1.80;;
21729;SDS011;11027;51.030;13.812;2023-05-10T07:36:32;6.88;;;1.77;;
21729;SDS011;11027;51.030;13.812;2023-05-10T07:38:57;4.90;;;1.70;;
21729;SDS011;11027;51.030;13.812;2023-05-10T07:41:23;6.70;;;1.77;;
21729;SDS011;11027;51.030;13.812;2023-05-10T07:43:48;2.72;;;1.80;;
21729;SDS011;11027;51.030;13.812;2023-05-10T07:46:13;6.72;;;2.33;;
21729;SDS011;11027;51.030;13.812;2023-05-10T07:48:39;6.93;;;2.05;;
21729;SDS011;11027;51.030;13.812;2023-05-10T07:51:04;3.75;;;1.92;;
21729;SDS011;11027;51.030;13.812;2023-05-10T07:53:31;4.70;;;2.20;;
21729;SDS011;11027;51.030;13.812;2023-05-10T07:55:57;3.22;;;2.30;;
21729;SDS011;11027;51.030;13.812;2023-05-10T07:58:23;5.43;;;2.00;;
21729;SDS011;11027;51.030;13.812;2023-05-10T08:00:48;7.13;;;2.05;;
21729;SDS011;11027;51.030;13.812;2023-05-10T08:03:14;6.32;;;2.42;;
21729;SDS011;11027;51.030;13.812;2023-05-10T08:05:39;10.23;;;2.20;;
21729;SDS011;11027;51.030;13.812;2023-05-10T08:08:05;7.20;;;2.78;;
21729;SDS011;11027;51.030;13.812;2023-05-10T08:10:30;3.58;;;2.00;;
21729;SDS011;11027;51.030;13.812;2023-05-10T08:12:56;5.25;;;2.08;;
21729;SDS011;11027;51.030;13.812;2023-05-10T08:15:23;4.60;;;2.40;;
21729;SDS011;11027;51.030;13.812;2023-05-10T08:17:48;5.82;;;2.20;;
21729;SDS011;11027;51.030;13.812;2023-05-10T08:20:13;6.95;;;2.17;;
21729;SDS011;11027;51.030;13.812;2023-05-10T08:22:41;3.90;;;2.15;;
21729;SDS011;11027;51.030;13.812;2023-05-10T08:25:07;4.32;;;1.90;;
21729;SDS011;11027;51.030;13.812;2023-05-10T08:27:32;3.88;;;2.53;;
21729;SDS011;11027;51.030;13.812;2023-05-10T08:29:58;4.45;;;1.92;;
21729;SDS011;11027;51.030;13.812;2023-05-10T08:32:23;4.30;;;2.47;;
21729;SDS011;11027;51.030;13.812;2023-05-10T08:34:48;7.15;;;2.15;;
21729;SDS011;11027;51.030;13.812;2023-05-10T08:37:13;4.40;;;1.95;;
21729;SDS011;11027;51.030;13.812;2023-05-10T08:39:39;3.03;;;2.10;;
21729;SDS011;11027;51.030;13.812;2023-05-10T08:42:04;5.13;;;2.22;;
21729;SDS011;11027;51.030;13.812;2023-05-10T08:44:34;7.80;;;2.88;;
21729;SDS011;11027;51.030;13.812;2023-05-10T08:47:02;4.10;;;2.35;;
21729;SDS011;11027;51.030;13.812;2023-05-10T08:49:31;2.80;;;2.10;;
21729;SDS011;11027;51.030;13.812;2023-05-10T08:51:57;9.00;;;2.38;;
21729;SDS011;11027;51.030;13.812;2023-05-10T08:54:24;2.15;;;1.95;;
21729;SDS011;11027;51.030;13.812;2023-05-10T08:56:50;7.72;;;2.63;;
21729;SDS011;11027;51.030;13.812;2023-05-10T08:59:15;4.45;;;2.05;;
21729;SDS011;11027;51.030;13.812;2023-05-10T09:01:41;3.75;;;2.30;;
21729;SDS011;11027;51.030;13.812;2023-05-10T09:04:09;5.50;;;1.98;;
21729;SDS011;11027;51.030;13.812;2023-05-10T09:06:34;2.28;;;2.08;;
21729;SDS011;11027;51.030;13.812;2023-05-10T09:09:00;7.88;;;2.30;;
21729;SDS011;11027;51.030;13.812;2023-05-10T09:11:26;5.60;;;2.55;;
21729;SDS011;11027;51.030;13.812;2023-05-10T09:13:54;5.78;;;2.63;;
21729;SDS011;11027;51.030;13.812;2023-05-10T09:16:20;4.13;;;2.63;;
21729;SDS011;11027;51.030;13.812;2023-05-10T09:18:45;4.97;;;2.47;;
21729;SDS011;11027;51.030;13.812;2023-05-10T09:21:11;6.68;;;2.28;;
21729;SDS011;11027;51.030;13.812;2023-05-10T09:23:36;6.65;;;2.25;;
21729;SDS011;11027;51.030;13.812;2023-05-10T09:26:05;6.38;;;2.33;;
21729;SDS011;11027;51.030;13.812;2023-05-10T09:28:33;6.63;;;2.58;;
21729;SDS011;11027;51.030;13.812;2023-05-10T09:31:14;4.10;;;2.30;;
21729;SDS011;11027;51.030;13.812;2023-05-10T09:33:43;5.68;;;2.22;;
21729;SDS011;11027;51.030;13.812;2023-05-10T09:36:13;7.03;;;2.30;;
21729;SDS011;11027;51.030;13.812;2023-05-10T09:38:45;3.80;;;2.35;;
21729;SDS011;11027;51.030;13.812;2023-05-10T09:41:18;2.83;;;2.10;;
21729;SDS011;11027;51.030;13.812;2023-05-10T09:43:45;7.65;;;2.33;;
21729;SDS011;11027;51.030;13.812;2023-05-10T09:46:11;5.30;;;2.30;;
21729;SDS011;11027;51.030;13.812;2023-05-10T09:48:43;6.03;;;2.17;;
21729;SDS011;11027;51.030;13.812;2023-05-10T09:51:10;4.20;;;2.30;;
21729;SDS011;11027;51.030;13.812;2023-05-10T09:53:43;3.88;;;2.28;;
21729;SDS011;11027;51.030;13.812;2023-05-10T09:56:08;4.07;;;2.25;;
21729;SDS011;11027;51.030;13.812;2023-05-10T09:58:35;3.97;;;2.40;;
21729;SDS011;11027;51.030;13.812;2023-05-10T10:01:02;2.65;;;2.08;;
21729;SDS011;11027;51.030;13.812;2023-05-10T10:03:28;8.30;;;2.35;;
21729;SDS011;11027;51.030;13.812;2023-05-10T10:05:54;3.08;;;2.53;;
21729;SDS011;11027;51.030;13.812;2023-05-10T10:08:20;5.40;;;2.70;;
21729;SDS011;11027;51.030;13.812;2023-05-10T10:10:46;5.95;;;2.58;;
21729;SDS011;11027;51.030;13.812;2023-05-10T10:13:12;4.75;;;2.40;;
21729;SDS011;11027;51.030;13.812;2023-05-10T10:15:38;2.95;;;2.20;;
21729;SDS011;11027;51.030;13.812;2023-05-10T10:18:04;6.57;;;2.38;;
21729;SDS011;11027;51.030;13.812;2023-05-10T10:20:30;4.72;;;2.22;;
21729;SDS011;11027;51.030;13.812;2023-05-10T10:22:56;2.40;;;2.20;;
21729;SDS011;11027;51.030;13.812;2023-05-10T10:25:21;3.08;;;2.72;;
21729;SDS011;11027;51.030;13.812;2023-05-10T10:27:49;5.72;;;2.40;;
21729;SDS011;11027;51.030;13.812;2023-05-10T10:30:31;3.80;;;2.67;;
21729;SDS011;11027;51.030;13.812;2023-05-10T10:33:08;5.88;;;2.20;;
21729;SDS011;11027;51.030;13.812;2023-05-10T10:35:43;5.78;;;2.95;;
21729;SDS011;11027;51.030;13.812;2023-05-10T10:38:10;5.40;;;2.67;;
21729;SDS011;11027;51.030;13.812;2023-05-10T10:40:37;6.82;;;2.30;;
21729;SDS011;11027;51.030;13.812;2023-05-10T10:43:22;4.18;;;2.78;;
21729;SDS011;11027;51.030;13.812;2023-05-10T10:48:39;4.88;;;2.25;;
21729;SDS011;11027;51.030;13.812;2023-05-10T10:51:05;10.45;;;3.00;;
21729;SDS011;11027;51.030;13.812;2023-05-10T10:53:30;7.35;;;2.78;;
21729;SDS011;11027;51.030;13.812;2023-05-10T10:56:06;5.72;;;2.42;;
21729;SDS011;11027;51.030;13.812;2023-05-10T10:58:34;8.68;;;2.78;;
21729;SDS011;11027;51.030;13.812;2023-05-10T11:01:08;7.72;;;2.70;;
21729;SDS011;11027;51.030;13.812;2023-05-10T11:03:35;3.63;;;2.88;;
21729;SDS011;11027;51.030;13.812;2023-05-10T11:06:01;5.00;;;2.35;;
21729;SDS011;11027;51.030;13.812;2023-05-10T11:08:31;3.28;;;2.65;;
21729;SDS011;11027;51.030;13.812;2023-05-10T11:16:16;6.60;;;2.28;;
21729;SDS011;11027;51.030;13.812;2023-05-10T11:18:51;6.32;;;2.40;;
21729;SDS011;11027;51.030;13.812;2023-05-10T11:21:22;6.25;;;2.33;;
21729;SDS011;11027;51.030;13.812;2023-05-10T11:23:49;5.78;;;2.33;;
21729;SDS011;11027;51.030;13.812;2023-05-10T11:26:16;5.95;;;2.80;;
21729;SDS011;11027;51.030;13.812;2023-05-10T11:28:42;6.55;;;2.95;;
21729;SDS011;11027;51.030;13.812;2023-05-10T11:31:08;9.23;;;2.88;;
21729;SDS011;11027;51.030;13.812;2023-05-10T11:33:42;3.25;;;2.22;;
21729;SDS011;11027;51.030;13.812;2023-05-10T11:36:13;5.93;;;2.25;;
21729;SDS011;11027;51.030;13.812;2023-05-10T11:38:40;6.45;;;2.58;;
21729;SDS011;11027;51.030;13.812;2023-05-10T11:41:05;9.07;;;2.60;;
21729;SDS011;11027;51.030;13.812;2023-05-10T11:43:33;3.72;;;2.10;;
21729;SDS011;11027;51.030;13.812;2023-05-10T11:45:59;3.17;;;2.50;;
21729;SDS011;11027;51.030;13.812;2023-05-10T11:48:24;5.57;;;2.40;;
21729;SDS011;11027;51.030;13.812;2023-05-10T11:50:49;8.85;;;2.78;;
21729;SDS011;11027;51.030;13.812;2023-05-10T11:53:15;6.75;;;2.40;;
21729;SDS011;11027;51.030;13.812;2023-05-10T11:55:40;3.97;;;2.60;;
21729;SDS011;11027;51.030;13.812;2023-05-10T11:58:05;4.55;;;2.50;;
21729;SDS011;11027;51.030;13.812;2023-05-10T12:00:31;4.97;;;2.10;;
21729;SDS011;11027;51.030;13.812;2023-05-10T12:02:56;6.43;;;2.50;;
21729;SDS011;11027;51.030;13.812;2023-05-10T12:05:22;5.35;;;2.05;;
21729;SDS011;11027;51.030;13.812;2023-05-10T12:07:48;6.35;;;1.90;;
21729;SDS011;11027;51.030;13.812;2023-05-10T12:10:13;6.78;;;2.75;;
21729;SDS011;11027;51.030;13.812;2023-05-10T12:12:45;3.55;;;2.63;;
21729;SDS011;11027;51.030;13.812;2023-05-10T12:15:19;4.20;;;2.80;;
21729;SDS011;11027;51.030;13.812;2023-05-10T12:17:46;4.22;;;2.20;;
21729;SDS011;11027;51.030;13.812;2023-05-10T12:20:18;4.22;;;2.50;;
21729;SDS011;11027;51.030;13.812;2023-05-10T12:22:54;3.85;;;2.80;;
21729;SDS011;11027;51.030;13.812;2023-05-10T12:25:21;4.30;;;2.30;;
21729;SDS011;11027;51.030;13.812;2023-05-10T12:27:48;4.43;;;2.40;;
21729;SDS011;11027;51.030;13.812;2023-05-10T12:30:23;4.45;;;2.20;;
21729;SDS011;11027;51.030;13.812;2023-05-10T12:32:50;6.82;;;2.00;;
21729;SDS011;11027;51.030;13.812;2023-05-10T12:35:27;2.50;;;2.20;;
21729;SDS011;11027;51.030;13.812;2023-05-10T12:37:55;6.75;;;2.42;;
21729;SDS011;11027;51.030;13.812;2023-05-10T12:40:20;3.38;;;2.05;;
21729;SDS011;11027;51.030;13.812;2023-05-10T12:42:46;3.10;;;2.22;;
21729;SDS011;11027;51.030;13.812;2023-05-10T12:45:11;5.05;;;1.90;;
21729;SDS011;11027;51.030;13.812;2023-05-10T12:47:37;2.05;;;1.80;;
21729;SDS011;11027;51.030;13.812;2023-05-10T12:50:03;5.47;;;2.28;;
21729;SDS011;11027;51.030;13.812;2023-05-10T12:52:29;8.18;;;2.40;;
21729;SDS011;11027;51.030;13.812;2023-05-10T12:54:56;3.88;;;2.10;;
21729;SDS011;11027;51.030;13.812;2023-05-10T12:57:22;6.53;;;2.38;;
21729;SDS011;11027;51.030;13.812;2023-05-10T12:59:48;6.13;;;2.50;;
21729;SDS011;11027;51.030;13.812;2023-05-10T13:02:13;3.17;;;1.92;;
21729;SDS011;11027;51.030;13.812;2023-05-10T13:04:39;4.45;;;2.20;;
21729;SDS011;11027;51.030;13.812;2023-05-10T13:07:06;6.60;;;2.50;;
21729;SDS011;11027;51.030;13.812;2023-05-10T13:09:31;5.03;;;2.33;;
21729;SDS011;11027;51.030;13.812;2023-05-10T13:11:57;4.45;;;2.00;;
21729;SDS011;11027;51.030;13.812;2023-05-10T13:14:22;2.65;;;1.92;;
21729;SDS011;11027;51.030;13.812;2023-05-10T13:16:47;5.07;;;1.90;;
21729;SDS011;11027;51.030;13.812;2023-05-10T13:19:13;8.00;;;2.07;;
21729;SDS011;11027;51.030;13.812;2023-05-10T13:21:39;5.00;;;2.05;;
21729;SDS011;11027;51.030;13.812;2023-05-10T13:24:06;6.13;;;2.10;;
21729;SDS011;11027;51.030;13.812;2023-05-10T13:26:31;2.30;;;1.88;;
21729;SDS011;11027;51.030;13.812;2023-05-10T13:28:57;4.70;;;1.77;;
21729;SDS011;11027;51.030;13.812;2023-05-10T13:31:22;3.03;;;1.70;;
21729;SDS011;11027;51.030;13.812;2023-05-10T13:33:47;3.10;;;1.88;;
21729;SDS011;11027;51.030;13.812;2023-05-10T13:36:12;2.83;;;2.10;;
21729;SDS011;11027;51.030;13.812;2023-05-10T13:38:38;4.55;;;1.80;;
21729;SDS011;11027;51.030;13.812;2023-05-10T13:41:03;2.83;;;1.90;;
21729;SDS011;11027;51.030;13.812;2023-05-10T13:43:28;2.90;;;1.55;;
21729;SDS011;11027;51.030;13.812;2023-05-10T13:45:54;6.60;;;1.83;;
21729;SDS011;11027;51.030;13.812;2023-05-10T13:48:20;3.97;;;1.60;;
21729;SDS011;11027;51.030;13.812;2023-05-10T13:50:45;3.08;;;1.80;;
21729;SDS011;11027;51.030;13.812;2023-05-10T13:53:11;3.72;;;1.73;;
21729;SDS011;11027;51.030;13.812;2023-05-10T13:55:36;2.30;;;1.90;;
21729;SDS011;11027;51.030;13.812;2023-05-10T13:58:01;2.42;;;1.90;;
21729;SDS011;11027;51.030;13.812;2023-05-10T14:00:26;4.87;;;1.90;;
21729;SDS011;11027;51.030;13.812;2023-05-10T14:02:52;5.07;;;1.90;;
21729;SDS011;11027;51.030;13.812;2023-05-10T14:05:17;3.75;;;1.63;;
21729;SDS011;11027;51.030;13.812;2023-05-10T14:07:42;3.47;;;1.60;;
21729;SDS011;11027;51.030;13.812;2023-05-10T14:10:07;4.20;;;2.17;;
21729;SDS011;11027;51.030;13.812;2023-05-10T14:12:33;5.95;;;2.00;;
21729;SDS011;11027;51.030;13.812;2023-05-10T14:14:58;2.53;;;1.90;;
21729;SDS011;11027;51.030;13.812;2023-05-10T14:17:23;3.77;;;1.93;;
21729;SDS011;11027;51.030;13.812;2023-05-10T14:19:49;2.87;;;2.30;;
21729;SDS011;11027;51.030;13.812;2023-05-10T14:22:14;2.60;;;2.20;;
21729;SDS011;11027;51.030;13.812;2023-05-10T14:24:39;3.28;;;1.80;;
21729;SDS011;11027;51.030;13.812;2023-05-10T14:27:04;5.23;;;1.90;;
21729;SDS011;11027;51.030;13.812;2023-05-10T14:29:30;4.22;;;1.80;;
21729;SDS011;11027;51.030;13.812;2023-05-10T14:31:56;3.97;;;2.17;;
21729;SDS011;11027;51.030;13.812;2023-05-10T14:34:21;2.63;;;1.60;;
21729;SDS011;11027;51.030;13.812;2023-05-10T14:36:46;3.40;;;1.67;;
21729;SDS011;11027;51.030;13.812;2023-05-10T14:39:11;5.10;;;2.25;;
21729;SDS011;11027;51.030;13.812;2023-05-10T14:41:38;6.72;;;3.50;;
21729;SDS011;11027;51.030;13.812;2023-05-10T14:44:05;3.80;;;2.10;;
21729;SDS011;11027;51.030;13.812;2023-05-10T14:46:31;5.50;;;2.28;;
21729;SDS011;11027;51.030;13.812;2023-05-10T14:48:56;7.22;;;2.30;;
21729;SDS011;11027;51.030;13.812;2023-05-10T14:51:21;6.97;;;4.03;;